Terminal Aerodrome Forecast
Issued by NWS Charleston, WV

Current Version | Previous Version | Graphics & Text | Print | Product List | Glossary On
Versions: 1 2 3 4 5 6 7 8 9 10 11 12 13 14 15 16 17 18 19 20 21
380
FTUS41 KRLX 051720
TAFPKB
TAF
KPKB 051720Z 0518/0618 29003KT P6SM FEW150
     FM061000 20004KT P6SM BKN050
     FM061700 23007KT P6SM BKN200=

USA.gov is the U.S. government's official web portal to all federal, state and local government web resources and services.